• Join FlightAware (Why Join?)
  • Login
  • US Flag 
05:35PM EDT


 

Airport Tracker/Info


-or-


 

Live Flight TrackerFlight Track Log ✈ NGF69C ✈ 01-May-2012 ✈ KBKL - KWST

Flight Track Log - Related Links

Times and Time Zones

All times are in EDT time to prevent confusion due to time zone crossing. See the NGF69C flight status page for this flight to view local times or setup timezone preferences in your user account.

Time Position Orientation Groundspeed Altitude Reporting Facility
EDT Latitude Longitude Course Direction KTS MPH feet Rate Location/Type
03:15PM 41.5064 -81.7033 304° West 81 93 1,200  Level Cleveland Center
03:16PM 41.5206 -81.7314 341° North 73 84 2,000 360 Climbing Cleveland Center
03:17PM 41.5456 -81.7428 North 91 105 2,100  Climbing Cleveland Center
03:18PM 41.5725 -81.7406 19° North 100 115 2,100 120 Level Cleveland Center
03:19PM 41.6019 -81.7272 72° East 121 139 2,400 480 Climbing Cleveland Center
03:20PM 41.6128 -81.6831 85° East 116 133 3,100 660 Climbing Cleveland Center
03:21PM 41.6153 -81.6469 82° East 108 124 3,700 600 Climbing Cleveland Center
03:22PM 41.6197 -81.6053 76° East 103 119 4,400 600 Climbing Cleveland Center
03:23PM 41.6264 -81.5692 81° East 102 117 5,000 480 Climbing Cleveland Center
03:24PM 41.6308 -81.5333 78° East 106 122 5,400 420 Climbing Cleveland Center
03:25PM 41.6375 -81.4917 78° East 110 127 5,900 420 Climbing Cleveland Center
03:26PM 41.6439 -81.4528 75° East 113 130 6,300 420 Climbing Cleveland Center
03:27PM 41.6528 -81.4086 75° East 117 135 6,800 360 Climbing Cleveland Center
03:28PM 41.6614 -81.3642 78° East 121 139 7,100 120 Climbing Cleveland Center
03:29PM 41.6700 -81.3114 89° East 152 175 7,100 -60 Level Cleveland Center
03:47PM 41.6844 -80.3050 97° East 155 178 7,000 -60 Descending Cleveland Center
03:48PM 41.6803 -80.2606 88° East 155 178 7,000  Level Cleveland Center
03:49PM 41.6822 -80.1967 93° East 155 178 7,000  Level Cleveland Center
03:50PM 41.6797 -80.1356 90° East 155 178 7,000  Level Cleveland Center
03:51PM 41.6794 -80.0744 87° East 155 178 7,000  Level Cleveland Center
03:52PM 41.6814 -80.0272 93° East 155 178 7,000  Level Cleveland Center
03:53PM 41.6789 -79.9578 93° East 155 178 7,100  Climbing Cleveland Center
03:54PM 41.6764 -79.8964 90° East 155 178 7,000 -60 Descending Cleveland Center
03:55PM 41.6761 -79.8408 90° East 155 178 7,000  Level Cleveland Center
03:56PM 41.6758 -79.7825 94° East 155 178 7,000  Level Cleveland Center
03:57PM 41.6733 -79.7297 88° East 155 178 7,000  Level Cleveland Center
03:58PM 41.6750 -79.6686 88° East 249 287 7,000  Level Cleveland Center
03:59PM 41.6767 -79.6156 94° East 191 220 7,100  Climbing Cleveland Center
04:00PM 41.6739 -79.5575 88° East 167 192 7,100  Level Cleveland Center
04:01PM 41.6756 -79.4961 94° East 155 178 7,100  Level Cleveland Center
04:02PM 41.6728 -79.4406 91° East 155 178 7,100  Level Cleveland Center
04:03PM 41.6722 -79.3822 91° East 155 178 7,100  Level Cleveland Center
04:04PM 41.6717 -79.3267 88° East 155 178 7,200 -60 Climbing Cleveland Center
04:05PM 41.6731 -79.2656 91° East 160 184 7,000 -60 Descending Cleveland Center
04:06PM 41.6725 -79.2156 91° East 148 170 7,100  Climbing Cleveland Center
04:07PM 41.6719 -79.1572 91° East 142 163 7,100  Level Cleveland Center
04:08PM 41.6711 -79.0933 91° East 147 169 7,100 -60 Level Cleveland Center
04:09PM 41.6703 -79.0347 88° East 156 180 7,000 -60 Descending Cleveland Center
04:10PM 41.6717 -78.9819 91° East 156 180 7,000  Level Cleveland Center
04:11PM 41.6706 -78.9181 97° East 156 180 7,000  Level Cleveland Center
04:12PM 41.6658 -78.8681 91° East 156 180 7,000  Level Cleveland Center
04:13PM 41.6650 -78.8153 88° East 156 180 7,000  Level Cleveland Center
04:14PM 41.6661 -78.7597 94° East 150 173 7,000  Level Cleveland Center
04:15PM 41.6633 -78.7069 92° East 145 167 7,000  Level Cleveland Center
04:16PM 41.6622 -78.6514 91° East 145 167 7,000 180 Level Cleveland Center
04:17PM 41.6614 -78.6014 91° East 140 161 7,400 360 Climbing Cleveland Center
04:18PM 41.6608 -78.5597 91° East 130 150 7,800 420 Climbing Cleveland Center
04:19PM 41.6600 -78.5153 87° East 119 137 8,300 300 Climbing Cleveland Center
04:20PM 41.6614 -78.4764 95° East 119 137 8,500 300 Climbing Cleveland Center
04:21PM 41.6583 -78.4319 88° East 119 137 8,900 300 Climbing Cleveland Center
04:22PM 41.6597 -78.3847 92° East 119 137 9,100 60 Climbing Cleveland Center
04:23PM 41.6586 -78.3375 94° East 124 143 9,100  Level Cleveland Center
04:24PM 41.6556 -78.2792 92° East 136 157 9,100 -60 Level Cleveland Center
04:25PM 41.6542 -78.2208 91° East 148 170 9,000 -60 Descending Cleveland Center
04:26PM 41.6531 -78.1625 89° East 153 176 9,000  Level Cleveland Center
04:27PM 41.6539 -78.1042 92° East 153 176 9,000 -60 Level Cleveland Center
04:28PM 41.6519 -78.0256 91° East 160 184 8,900  Descending New York Center
04:29PM 41.6514 -77.9669 93° East 160 184 9,000  Climbing New York Center
04:30PM 41.6486 -77.9056 94° East 160 184 9,000  Level New York Center
04:31PM 41.6458 -77.8469 88° East 160 184 9,000  Level New York Center
04:32PM 41.6472 -77.7889 93° East 160 184 9,000  Level New York Center
04:33PM 41.6447 -77.7247 91° East 160 184 9,000  Level New York Center
04:34PM 41.6439 -77.6692 91° East 160 184 9,000  Level New York Center
04:35PM 41.6433 -77.6081 94° East 160 184 9,000  Level New York Center
04:36PM 41.6403 -77.5494 91° East 160 184 9,000  Level New York Center
04:37PM 41.6397 -77.4883 92° East 160 184 9,000  Level New York Center
04:38PM 41.6386 -77.4325 93° East 160 184 9,000  Level New York Center
04:39PM 41.6358 -77.3711 91° East 160 184 9,000  Level New York Center
04:40PM 41.6350 -77.3128 95° East 160 184 9,000  Level New York Center
04:41PM 41.6317 -77.2569 94° East 160 184 9,100  Climbing New York Center
04:42PM 41.6286 -77.1983 89° East 160 184 9,000 -60 Descending New York Center
04:43PM 41.6297 -77.1403 92° East 160 184 9,000  Level New York Center
04:44PM 41.6283 -77.0875 95° East 160 184 9,000  Level New York Center
04:45PM 41.6250 -77.0344 89° East 155 178 9,100  Climbing New York Center
04:46PM 41.6258 -76.9789 95° East 150 173 9,000 -60 Descending New York Center
04:47PM 41.6222 -76.9258 91° East 145 167 9,000  Level New York Center
04:48PM 41.6211 -76.8647 95° East 145 167 9,000  Level New York Center
04:49PM 41.6178 -76.8089 91° East 145 167 9,000  Level New York Center
04:50PM 41.6167 -76.7506 94° East 145 167 9,000  Level New York Center
04:51PM 41.6133 -76.6919 93° East 145 167 9,000  Level New York Center
04:52PM 41.6117 -76.6417 92° East 151 174 9,100  Climbing New York Center
04:53PM 41.6100 -76.5889 91° East 151 174 9,000  Descending New York Center
04:54PM 41.6089 -76.5278 92° East 146 168 9,100  Climbing New York Center
04:55PM 41.6075 -76.4694 92° East 146 168 9,000 -60 Descending New York Center
04:56PM 41.6058 -76.4167 93° East 146 168 9,000  Level New York Center
04:57PM 41.6042 -76.3664 95° East 146 168 9,000  Level New York Center
04:58PM 41.6006 -76.3078 92° East 146 168 9,100  Climbing New York Center
04:59PM 41.5992 -76.2467 92° East 146 168 9,100  Level New York Center
05:00PM 41.5975 -76.1939 92° East 146 168 9,100  Level New York Center
05:01PM 41.5958 -76.1383 93° East 146 168 9,100  Level New York Center
05:02PM 41.5939 -76.0911 94° East 141 162 9,100  Level New York Center
05:03PM 41.5906 -76.0269 92° East 147 169 9,100  Level New York Center
05:04PM 41.5889 -75.9686 92° East 147 169 9,100  Level New York Center
05:05PM 41.5872 -75.9128 88° East 152 175 9,100  Level New York Center
05:17PM 41.6056 -75.2192 88° East 157 181 9,100  Level Boston Center
05:18PM 41.6069 -75.1639 88° East 152 175 9,100 -60 Level Boston Center
05:19PM 41.6083 -75.1000 88° East 152 175 9,000  Descending Boston Center
05:20PM 41.6097 -75.0472 85° East 152 175 9,100  Climbing Boston Center
05:21PM 41.6131 -74.9919 91° East 152 175 9,100  Level Boston Center
05:22PM 41.6122 -74.9308 88° East 152 175 9,100  Level Boston Center
05:23PM 41.6133 -74.8781 85° East 152 175 9,100  Level Boston Center
05:24PM 41.6167 -74.8228 91° East 147 169 9,100  Level Boston Center
05:25PM 41.6158 -74.7669 88° East 147 169 9,100  Level Boston Center
05:26PM 41.6169 -74.7117 88° East 147 169 9,100  Level Boston Center
05:27PM 41.6181 -74.6561 88° East 147 169 9,100  Level Boston Center
05:28PM 41.6192 -74.6006 89° East 147 169 9,100  Level Boston Center
05:29PM 41.6200 -74.5450 88° East 142 163 9,100  Level Boston Center
05:30PM 41.6211 -74.4894 86° East 142 163 9,100  Level Boston Center
05:31PM 41.6242 -74.4342 92° East 142 163 9,100  Level Boston Center
05:32PM 41.6231 -74.3786 89° East 142 163 9,100  Level Boston Center
05:33PM 41.6242 -74.3203 89° East 148 170 9,100  Level Boston Center
05:34PM 41.6250 -74.2647 89° East 148 170 9,100  Level Boston Center
05:35PM 41.6258 -74.2064 89° East 148 170 9,100  Level Boston Center
05:36PM 41.6267 -74.1536 89° East 148 170 9,100  Level Boston Center
05:37PM 41.6275 -74.0953 89° East 148 170 9,100  Level Boston Center
05:38PM 41.6283 -74.0453 89° East 143 165 9,100  Level Boston Center
05:39PM 41.6292 -73.9842 89° East 143 165 9,100  Level Boston Center
05:40PM 41.6297 -73.9342 89° East 143 165 9,100  Level Boston Center
05:41PM 41.6306 -73.8733 89° East 143 165 9,100  Level Boston Center
05:42PM 41.6311 -73.8233 89° East 148 170 9,100  Level Boston Center
05:43PM 41.6319 -73.7622 86° East 148 170 9,100  Level Boston Center
05:44PM 41.6347 -73.7094 92° East 143 165 9,100  Level Boston Center
05:45PM 41.6333 -73.6511 86° East 143 165 9,100  Level Boston Center
05:46PM 41.6358 -73.5983 92° East 143 165 9,100  Level Boston Center
05:47PM 41.6344 -73.5400 90° East 143 165 9,100  Level Boston Center
05:48PM 41.6347 -73.4872 89° East 143 165 9,100  Level Boston Center
05:49PM 41.6353 -73.4483 92° East 150 173 9,100  Level Boston Center
05:50PM 41.6336 -73.3817 89° East 148 170 9,100  Level Boston Center
05:51PM 41.6342 -73.3233 89° East 148 170 9,100  Level Boston Center
05:52PM 41.6347 -73.2678 87° East 147 169 9,100  Level Boston Center
05:53PM 41.6369 -73.2150 98° East 145 167 9,100  Level Boston Center
05:54PM 41.6311 -73.1622 103° East 143 165 9,100  Level Boston Center
05:55PM 41.6211 -73.1064 97° East 149 171 9,100  Level Boston Center
05:56PM 41.6153 -73.0453 102° East 143 165 9,100  Level Boston Center
05:57PM 41.6072 -72.9925 99° East 143 165 9,100  Level Boston Center
05:58PM 41.6011 -72.9397 101° East 143 165 9,100  Level Boston Center
05:59PM 41.5931 -72.8842 101° East 143 165 9,100  Level Boston Center
06:00PM 41.5847 -72.8286 95° East 143 165 9,100  Level Boston Center
06:01PM 41.5808 -72.7731 101° East 143 165 9,100 -180 Level Boston Center
06:02PM 41.5728 -72.7175 97° East 143 165 8,800 -540 Descending Boston Center
06:03PM 41.5667 -72.6536 99° East 155 178 8,100 -780 Descending Boston Center
06:04PM 41.5564 -72.5678 100° East 177 204 7,100 -480 Descending Boston Center
06:06PM 41.5481 -72.5039 104° East 158 182 7,000  Descending Boston Center
06:07PM 41.5375 -72.4483 98° East 150 173 7,100  Climbing Boston Center
06:08PM 41.5314 -72.3931 108° East 152 175 7,100  Level Boston Center
06:09PM 41.5189 -72.3403 128° Southeast 150 173 7,100 -240 Level Boston Center
06:10PM 41.4917 -72.2933 164° South 166 191 6,700 -600 Descending Boston Center
06:11PM 41.4478 -72.2767 155° Southeast 163 188 6,000 -840 Descending Boston Center
06:12PM 41.4042 -72.2492 159° South 179 206 5,100 -900 Descending Boston Center
06:13PM 41.3622 -72.2272 150° Southeast 163 188 4,200 -900 Descending Boston Center
06:14PM 41.3186 -72.1942 143° Southeast 164 189 3,300 -600 Descending Boston Center
06:15PM 41.2831 -72.1583 133° Southeast 157 181 3,000 -120 Descending Boston Center
06:16PM 41.2578 -72.1225 133° Southeast 144 166 3,100  Climbing Boston Center
06:17PM 41.2328 -72.0867 102° East 132 152 3,100 -300 Level Boston Center
06:18PM 41.2242 -72.0344 63° Northeast 144 166 2,500 -540 Descending Boston Center
06:19PM 41.2367 -72.0011 54° Northeast 109 125 2,100 -360 Descending Boston Center
06:20PM 41.2533 -71.9708 45° Northeast 100 115 1,800 -300 Descending Boston Center
06:21PM 41.2739 -71.9431 52° Northeast 103 119 1,600 -60 Descending Boston Center
06:22PM 41.2883 -71.9181 60° Northeast 102 117 1,700 -60 Climbing Boston Center
06:23PM 41.3028 -71.8847 51° Northeast 102 117 1,500 -420 Descending Boston Center
06:24PM 41.3214 -71.8542 53° Northeast 105 121 900 -480 Descending Boston Center
06:25PM 41.3339 -71.8319 19° North 87 100 600 -300 Descending Boston Center
06:26PM 41.3525 -71.8233 19° North 82 94 400 -240 Descending Boston Center